Igloolik: Past 24 Hour Conditions

 

Quaqtaq Airport

03:00 PM EST 27 November 2014
This table is a summary of hourly weather conditions for the past 24 hours.
Date / Time
(EST)
Wind(knots) Conditions Visibility(km) Pressure(kPa) Air tempC) Relative humidity(%) Dew pointC) Wind Chill
27 November 2014
15:00 WSW 22 gust 28 Light Snow 24 100.8 -10 74 -14 -21
14:00 SW 25 gust 30 Light Snow 24 100.8 -10 77 -13 -22
13:00 SW 22 gust 29 Light Snow 24 100.9 -10 74 -14 -21
12:00 SSW 18 gust 23 Light Snow 24 101.0 -10 73 -14 -21
11:00 S 8 Light Snow 24 101.1 -13 75 -16 -20
10:00 WSW 12 Drifting Snow 24 101.1 -13 76 -16 -21
9:00 W 17 Drifting Snow 24 101.1 -12 76 -15 -22
8:00 W 13 Drifting Snow 24 101.1 -13 75 -16 -22
7:00 W 10 N/A N/A 101.1 -14 77 -17 -22
6:00 WNW 17 N/A N/A 101.1 -14 77 -17 -25
5:00 W 13 N/A N/A 101.1 -14 78 -17 -24
4:00 W 15 N/A N/A 101.1 -14 78 -17 -24
3:00 WNW 22 N/A N/A 101.0 -13 73 -17 -25
2:00 WNW 24 N/A N/A 101.0 -13 75 -17 -26
1:00 WNW 22 N/A N/A 100.9 -14 73 -18 -26
0:00 WNW 21 N/A N/A 100.9 -14 74 -17 -25
26 November 2014
23:00 W 22 N/A N/A 100.9 -14 72 -18 -26
22:00 WNW 30 N/A N/A 100.7 -13 73 -17 -26
21:00 W 30 N/A N/A 100.7 -13 73 -17 -26
20:00 W 25 N/A N/A 100.7 -12 66 -17 -24
19:00 WNW 33 N/A N/A 100.5 -12 90 -14 -26
18:00 WNW 24 N/A N/A 100.5 -13 78 -16 -26
17:00 W 13 Drifting Snow 24 100.5 -13 78 -16 -22
16:00 W 16 Drifting Snow 24 100.4 -12 76 -16 -22
15:00 WSW 21 gust 26 Drifting Snow 24 100.4 -13 75 -16 -25
 
Map of Arctic - Eastern Arctic marine weather areas Baker Lake Airport Chesterfield Inlet Airport Coral Harbour Airport Gjoa Haven Airport Kugaaruk Airport Rankin Inlet Airport Shepherd Bay Airport Whale Cove Airport Arctic Bay Brevoort Island Qikiqtarjuaq Airport Cape Dorset Airport Cape Dyer Cape Hooper Clyde Airport Grise Fiord Airport Hall Beach Airport Igloolik Airport Iqaluit Airport Longstaff Bluff Pangnirtung Airport Pond Inlet Airport Repulse Bay Airport Resolute Airport Resolution Island Rowley Island Airport Taloyoak Airport Wager Bay Akulivik Airport Ivujivik Airport Puvirnituq Airport Kangiqsujuaq Airport Kangirsuk Airport Quaqtaq Airport Tasiujaq Airport Cape Kakkiviak Cape Kiglapait Nain Airport Saglek Cape Mercy Kimmirut Airport Aupaluk Airport Salluit Airport Kangiqsualujjuaq Airport Fort Ross
Legend: buoyBuoy land stationLand Station